Time;durP1;ratioP1;P1;durP2;ratioP2;P2;SDS_P1;SDS_P2;PMS_P1;PMS_P2;Temp;Humidity;BMP_temperature;BMP_pressure;BME280_temperature;BME280_humidity;BME280_pressure;Samples;Min_cycle;Max_cycle;Signal;HPM_P1;HPM_P2
2023/06/10 00:01:41;;;;;;;11.60;10.90;;;22.70;53.50;;;;;;5067101;28;20180;-89
2023/06/10 00:04:07;;;;;;;11.88;11.10;;;22.80;54.10;;;;;;5069280;28;20180;-87
2023/06/10 00:06:35;;;;;;;12.45;11.50;;;22.90;54.10;;;;;;5041280;28;20180;-86
2023/06/10 00:09:04;;;;;;;11.68;10.80;;;22.90;53.80;;;;;;5040297;28;20219;-87
2023/06/10 00:11:30;;;;;;;12.60;11.60;;;22.90;54.10;;;;;;5035044;28;20220;-88
2023/06/10 00:13:56;;;;;;;12.48;11.40;;;22.70;55.20;;;;;;5036192;28;20223;-86
2023/06/10 00:16:21;;;;;;;11.85;11.15;;;22.50;56.30;;;;;;5036743;28;20181;-86
2023/06/10 00:18:48;;;;;;;11.90;10.95;;;22.40;56.70;;;;;;5036696;28;20205;-88
2023/06/10 00:21:14;;;;;;;12.55;11.73;;;22.20;57.80;;;;;;5036067;28;20200;-87
2023/06/10 00:23:41;;;;;;;12.65;11.73;;;22.10;58.30;;;;;;5038473;28;20670;-87
2023/06/10 00:26:07;;;;;;;12.52;11.52;;;22.00;58.10;;;;;;5038092;28;20173;-88
2023/06/10 00:28:32;;;;;;;11.93;10.88;;;21.80;58.80;;;;;;5037120;28;20223;-87
2023/06/10 00:30:58;;;;;;;12.10;11.20;;;21.70;58.70;;;;;;5037185;28;20180;-86
2023/06/10 00:33:23;;;;;;;11.70;10.73;;;21.60;58.60;;;;;;5037573;28;20242;-87
2023/06/10 00:35:49;;;;;;;12.82;11.13;;;21.50;58.90;;;;;;5037260;28;20184;-87
2023/06/10 00:38:15;;;;;;;11.35;10.38;;;21.40;58.30;;;;;;5037430;28;20236;-86
2023/06/10 00:40:41;;;;;;;10.98;10.05;;;21.50;58.10;;;;;;5036498;28;20267;-86
2023/06/10 00:43:07;;;;;;;11.40;10.60;;;21.30;58.60;;;;;;5037167;28;20192;-87
2023/06/10 00:45:33;;;;;;;11.75;10.85;;;21.40;57.70;;;;;;5020002;28;20226;-87
2023/06/10 00:48:00;;;;;;;11.52;10.73;;;21.50;57.50;;;;;;5037361;28;20216;-87
2023/06/10 00:50:26;;;;;;;11.65;10.88;;;21.50;56.40;;;;;;5036668;28;20207;-88
2023/06/10 00:52:54;;;;;;;11.75;10.93;;;21.50;57.40;;;;;;5039182;28;20578;-87
2023/06/10 00:55:20;;;;;;;11.07;10.13;;;21.60;57.20;;;;;;5028671;28;20176;-87
2023/06/10 00:57:49;;;;;;;11.23;10.45;;;21.70;57.60;;;;;;5043354;28;20212;-88
2023/06/10 01:00:15;;;;;;;11.43;10.57;;;21.60;57.70;;;;;;5034293;28;20228;-86
2023/06/10 01:02:41;;;;;;;11.70;10.80;;;21.60;58.40;;;;;;5035076;28;20175;-87
2023/06/10 01:05:08;;;;;;;11.48;10.68;;;21.50;58.80;;;;;;5034823;28;20173;-87
2023/06/10 01:07:53;;;;;;;11.52;10.63;;;21.30;59.70;;;;;;5024029;28;20234;-86
2023/06/10 01:10:53;;;;;;;11.30;10.60;;;21.20;59.60;;;;;;5033492;28;20180;-86
2023/06/10 01:13:23;;;;;;;11.43;10.52;;;21.20;60.10;;;;;;5023124;28;20192;-87
2023/06/10 01:15:50;;;;;;;11.77;10.98;;;21.10;60.20;;;;;;5015678;28;20195;-87
2023/06/10 01:18:16;;;;;;;11.27;10.35;;;21.00;60.70;;;;;;5031558;28;20210;-87
2023/06/10 01:20:43;;;;;;;12.00;11.05;;;20.90;61.30;;;;;;5036187;28;20226;-86
2023/06/10 01:23:10;;;;;;;10.55;9.85;;;20.90;61.60;;;;;;5019440;28;20605;-86
2023/06/10 01:26:05;;;;;;;11.32;10.55;;;20.90;61.70;;;;;;5039658;28;20181;-86
2023/06/10 01:28:49;;;;;;;11.40;10.60;;;20.80;61.70;;;;;;5040651;28;20218;-86
2023/06/10 01:31:22;;;;;;;10.63;9.82;;;20.80;62.20;;;;;;5045663;28;20188;-86
2023/06/10 01:33:52;;;;;;;11.43;10.45;;;20.70;62.50;;;;;;5047273;28;20269;-86
2023/06/10 01:36:19;;;;;;;11.77;10.88;;;20.60;62.20;;;;;;5046215;28;20650;-88
2023/06/10 01:38:47;;;;;;;11.40;10.50;;;20.60;62.70;;;;;;5028971;28;20199;-86
2023/06/10 01:41:15;;;;;;;11.38;10.48;;;20.50;62.50;;;;;;5045722;28;20176;-84
2023/06/10 01:43:43;;;;;;;10.65;9.95;;;20.50;62.20;;;;;;5025862;28;20187;-86
2023/06/10 01:46:09;;;;;;;12.07;10.95;;;20.40;62.30;;;;;;5023583;28;20178;-85
2023/06/10 01:48:35;;;;;;;11.43;10.57;;;20.50;62.50;;;;;;5027968;28;20789;-85
2023/06/10 01:51:01;;;;;;;11.75;10.63;;;20.40;62.70;;;;;;5039953;28;20201;-86
2023/06/10 01:53:26;;;;;;;11.88;10.98;;;20.30;62.50;;;;;;5068044;28;20188;-87
2023/06/10 01:55:52;;;;;;;11.50;10.70;;;20.20;63.00;;;;;;5030049;28;20335;-87
2023/06/10 01:58:18;;;;;;;11.55;10.75;;;20.10;62.80;;;;;;5067914;28;20239;-87
2023/06/10 02:00:43;;;;;;;11.70;10.90;;;20.10;62.60;;;;;;5047124;28;20195;-87
2023/06/10 02:03:09;;;;;;;11.05;10.18;;;20.20;62.40;;;;;;5068025;28;20184;-86
2023/06/10 02:05:35;;;;;;;11.40;10.57;;;20.20;62.60;;;;;;5068077;28;20181;-87
2023/06/10 02:08:01;;;;;;;10.95;10.25;;;20.20;62.50;;;;;;5062061;28;20311;-85
2023/06/10 02:10:26;;;;;;;11.15;10.35;;;20.20;62.70;;;;;;5047937;28;20174;-87
2023/06/10 02:12:52;;;;;;;11.45;10.65;;;20.20;63.10;;;;;;5047498;28;20181;-86
2023/06/10 02:15:18;;;;;;;11.38;10.57;;;20.20;63.90;;;;;;5048855;28;20185;-88
2023/06/10 02:17:44;;;;;;;11.25;10.35;;;20.00;65.20;;;;;;5050041;28;20211;-87
2023/06/10 02:20:10;;;;;;;11.98;10.98;;;19.80;66.10;;;;;;5056781;28;20366;-87
2023/06/10 02:22:37;;;;;;;11.38;10.57;;;19.60;66.30;;;;;;5039598;28;20174;-88
2023/06/10 02:25:03;;;;;;;11.65;10.75;;;19.60;65.80;;;;;;5057752;28;20199;-87
2023/06/10 02:27:30;;;;;;;12.10;11.13;;;19.60;65.20;;;;;;5057628;28;20189;-87
2023/06/10 02:29:56;;;;;;;10.68;10.00;;;19.50;65.90;;;;;;5054938;28;20221;-88
2023/06/10 02:32:22;;;;;;;11.90;11.00;;;19.60;65.00;;;;;;5046860;28;20196;-86
2023/06/10 02:34:48;;;;;;;12.00;11.00;;;19.70;65.30;;;;;;5029178;28;20200;-85
2023/06/10 02:37:15;;;;;;;11.10;10.35;;;19.80;64.40;;;;;;5046363;28;20200;-86
2023/06/10 02:39:41;;;;;;;11.05;10.25;;;19.70;65.00;;;;;;5045647;28;20248;-87
2023/06/10 02:42:07;;;;;;;11.48;10.68;;;19.80;64.50;;;;;;5027785;28;20275;-87
2023/06/10 02:44:33;;;;;;;11.98;11.07;;;19.70;64.70;;;;;;5045873;28;20184;-87
2023/06/10 02:46:58;;;;;;;12.13;11.30;;;19.70;64.90;;;;;;5029939;28;20247;-86
2023/06/10 02:49:24;;;;;;;12.20;11.32;;;19.70;64.60;;;;;;5053988;28;20236;-85
2023/06/10 02:51:53;;;;;;;11.60;10.68;;;19.60;64.90;;;;;;5044212;28;20414;-86
2023/06/10 02:54:20;;;;;;;10.65;9.95;;;19.60;65.50;;;;;;5043209;28;20232;-86
2023/06/10 02:56:47;;;;;;;12.50;11.48;;;19.50;65.90;;;;;;5049384;28;20612;-87
2023/06/10 02:59:13;;;;;;;11.27;10.55;;;19.40;67.00;;;;;;5051514;28;20173;-87
2023/06/10 03:01:40;;;;;;;11.68;10.77;;;19.50;67.00;;;;;;5041460;28;20270;-86
2023/06/10 03:04:06;;;;;;;11.90;10.98;;;19.40;66.90;;;;;;5041336;28;20252;-85
2023/06/10 03:06:35;;;;;;;12.02;11.02;;;19.40;66.80;;;;;;5042582;28;20187;-85
2023/06/10 03:09:04;;;;;;;12.32;11.43;;;19.30;67.10;;;;;;5029619;28;20201;-86
2023/06/10 03:11:29;;;;;;;12.15;11.30;;;19.30;66.90;;;;;;5041412;28;20237;-86
2023/06/10 03:13:57;;;;;;;11.95;11.15;;;19.30;67.20;;;;;;5042137;28;20216;-87
2023/06/10 03:16:22;;;;;;;11.48;10.32;;;19.30;66.50;;;;;;5023254;28;20195;-85
2023/06/10 03:18:49;;;;;;;11.73;10.93;;;19.30;66.30;;;;;;5039757;28;20589;-87
2023/06/10 03:21:15;;;;;;;11.55;10.65;;;19.30;66.40;;;;;;5043585;28;20185;-86
2023/06/10 03:23:40;;;;;;;11.32;10.52;;;19.40;65.50;;;;;;5047385;28;20191;-87
2023/06/10 03:26:06;;;;;;;11.32;10.43;;;19.40;65.40;;;;;;5030016;28;20606;-87
2023/06/10 03:28:32;;;;;;;11.68;10.77;;;19.30;65.90;;;;;;5047212;28;20213;-87
2023/06/10 03:30:58;;;;;;;11.23;10.35;;;19.20;66.50;;;;;;5047705;28;20173;-87
2023/06/10 03:33:23;;;;;;;11.10;10.18;;;19.10;67.20;;;;;;5046867;28;20220;-85
2023/06/10 03:35:50;;;;;;;11.43;10.50;;;19.00;67.60;;;;;;5028979;28;20185;-86
2023/06/10 03:38:16;;;;;;;11.23;10.43;;;18.90;67.90;;;;;;5046385;28;20196;-87
2023/06/10 03:40:42;;;;;;;12.07;10.90;;;18.90;68.50;;;;;;5045785;28;20177;-86
2023/06/10 03:43:07;;;;;;;11.88;11.02;;;18.90;68.30;;;;;;5050932;28;20212;-86
2023/06/10 03:45:33;;;;;;;11.70;10.73;;;18.90;68.30;;;;;;5033892;28;20188;-86
2023/06/10 03:47:58;;;;;;;11.57;10.77;;;18.90;69.50;;;;;;5045792;28;20281;-88
2023/06/10 03:50:26;;;;;;;11.43;10.55;;;18.80;69.40;;;;;;5044634;28;20173;-85
2023/06/10 03:52:51;;;;;;;11.23;10.32;;;18.80;69.00;;;;;;5044760;28;20195;-87
2023/06/10 03:55:17;;;;;;;10.95;10.15;;;18.90;68.60;;;;;;5043251;28;20180;-85
2023/06/10 03:57:43;;;;;;;11.13;10.32;;;18.90;68.20;;;;;;5058422;28;20204;-86
2023/06/10 04:00:12;;;;;;;11.10;10.25;;;19.00;68.20;;;;;;5062864;28;20195;-86
2023/06/10 04:02:49;;;;;;;11.80;10.90;;;19.10;67.70;;;;;;5064721;28;20180;-87
2023/06/10 04:05:21;;;;;;;11.68;10.77;;;19.10;67.00;;;;;;5046841;28;20654;-85
2023/06/10 04:07:48;;;;;;;10.90;10.00;;;19.10;67.20;;;;;;5060956;28;20200;-86
2023/06/10 04:10:14;;;;;;;11.07;10.27;;;19.10;67.20;;;;;;5028263;28;20201;-85
2023/06/10 04:12:40;;;;;;;10.63;9.93;;;19.20;66.90;;;;;;5045539;28;20208;-86
2023/06/10 04:15:06;;;;;;;11.07;10.10;;;19.00;67.20;;;;;;5044708;28;20582;-86
2023/06/10 04:17:32;;;;;;;10.80;10.10;;;18.90;67.60;;;;;;5027635;28;20287;-86
2023/06/10 04:19:58;;;;;;;11.07;10.18;;;18.90;68.20;;;;;;5027458;28;20211;-87
2023/06/10 04:22:24;;;;;;;10.35;9.65;;;18.80;68.80;;;;;;5026534;28;20209;-87
2023/06/10 04:24:50;;;;;;;11.15;10.32;;;18.80;68.50;;;;;;5044967;28;20185;-87
2023/06/10 04:27:15;;;;;;;10.48;9.68;;;18.90;68.70;;;;;;5043847;28;20208;-86
2023/06/10 04:29:41;;;;;;;10.70;10.00;;;19.00;68.10;;;;;;5021998;28;20793;-85
2023/06/10 04:32:07;;;;;;;10.70;10.00;;;19.00;67.80;;;;;;5024226;28;20170;-86
2023/06/10 04:34:33;;;;;;;10.55;9.85;;;19.10;68.50;;;;;;5016742;28;20211;-87
2023/06/10 04:36:59;;;;;;;11.40;10.50;;;19.20;68.60;;;;;;5043086;28;20323;-86
2023/06/10 04:39:25;;;;;;;10.02;9.23;;;19.20;67.30;;;;;;5050945;28;20616;-85
2023/06/10 04:41:50;;;;;;;10.52;9.82;;;19.30;67.50;;;;;;5057639;28;20196;-86
2023/06/10 04:44:16;;;;;;;10.35;9.65;;;19.40;66.90;;;;;;5061811;28;20195;-86
2023/06/10 04:46:42;;;;;;;9.90;9.10;;;19.50;66.50;;;;;;5051100;28;20695;-86
2023/06/10 04:49:07;;;;;;;10.35;9.45;;;19.50;65.90;;;;;;5041528;28;20193;-87
2023/06/10 04:51:34;;;;;;;14.55;10.60;;;19.50;65.60;;;;;;5038078;28;20179;-86
2023/06/10 04:54:03;;;;;;;11.00;9.95;;;19.70;65.80;;;;;;5036860;28;20202;-87
2023/06/10 04:56:30;;;;;;;10.20;9.40;;;19.80;65.00;;;;;;5029577;28;20178;-87
2023/06/10 04:58:57;;;;;;;10.50;9.70;;;19.70;65.40;;;;;;5063443;28;20215;-87
2023/06/10 05:01:23;;;;;;;10.02;9.32;;;19.80;65.20;;;;;;5062401;28;20176;-86
2023/06/10 05:03:48;;;;;;;10.40;9.60;;;19.80;65.00;;;;;;5064459;28;20194;-86
2023/06/10 05:06:14;;;;;;;9.93;9.23;;;19.60;64.90;;;;;;5068213;28;20212;-88
2023/06/10 05:08:40;;;;;;;10.05;9.35;;;19.50;65.30;;;;;;5069825;28;20216;-85
2023/06/10 05:11:06;;;;;;;9.57;8.98;;;19.50;66.00;;;;;;5068576;28;20236;-87
2023/06/10 05:13:32;;;;;;;9.25;8.65;;;19.50;66.00;;;;;;5069550;28;20184;-84
2023/06/10 05:15:58;;;;;;;9.77;9.07;;;19.50;65.60;;;;;;5068559;28;20168;-87
2023/06/10 05:18:24;;;;;;;10.27;9.48;;;19.60;65.40;;;;;;5068937;28;20204;-86
2023/06/10 05:20:49;;;;;;;9.57;8.95;;;19.60;65.20;;;;;;5068056;28;20180;-86
2023/06/10 05:23:15;;;;;;;9.85;9.25;;;19.70;65.40;;;;;;5067723;28;20210;-86
2023/06/10 05:25:41;;;;;;;9.98;9.27;;;19.70;65.60;;;;;;5068526;28;20172;-86
2023/06/10 05:28:09;;;;;;;10.18;9.35;;;19.70;65.20;;;;;;5050068;28;20287;-86
2023/06/10 05:30:35;;;;;;;10.32;9.63;;;19.80;65.30;;;;;;5066687;28;20176;-85
2023/06/10 05:33:01;;;;;;;9.68;8.88;;;19.70;66.00;;;;;;5057086;28;20184;-86
2023/06/10 05:35:27;;;;;;;8.98;8.27;;;19.80;65.10;;;;;;5055660;28;20189;-86
2023/06/10 05:37:52;;;;;;;9.00;8.38;;;19.90;64.50;;;;;;5061342;28;20287;-87
2023/06/10 05:40:18;;;;;;;9.80;9.02;;;19.90;63.90;;;;;;5047538;28;20181;-84
2023/06/10 05:42:44;;;;;;;9.55;8.85;;;20.00;64.80;;;;;;5046620;28;20177;-86
2023/06/10 05:45:10;;;;;;;9.55;8.55;;;20.00;64.20;;;;;;5046141;28;20177;-86
2023/06/10 05:47:36;;;;;;;9.20;8.50;;;20.10;64.20;;;;;;5045355;28;20447;-86
2023/06/10 05:50:02;;;;;;;8.68;8.02;;;20.20;63.50;;;;;;5044427;28;20196;-86
2023/06/10 05:52:28;;;;;;;9.43;8.73;;;20.30;62.80;;;;;;5043241;28;20173;-85
2023/06/10 05:54:54;;;;;;;9.82;9.07;;;20.40;62.00;;;;;;5034379;28;20241;-87
2023/06/10 05:57:20;;;;;;;9.73;8.93;;;20.50;62.10;;;;;;5024674;28;20193;-87
2023/06/10 05:59:45;;;;;;;9.38;8.75;;;20.50;62.50;;;;;;5023879;28;20190;-86
2023/06/10 06:02:11;;;;;;;9.30;8.52;;;20.60;61.60;;;;;;5024951;28;20182;-86
2023/06/10 06:04:37;;;;;;;8.88;8.27;;;20.60;61.20;;;;;;5024791;28;20200;-85
2023/06/10 06:07:03;;;;;;;9.82;9.13;;;20.60;61.80;;;;;;5023468;28;20293;-85
2023/06/10 06:09:28;;;;;;;9.15;8.45;;;20.70;61.40;;;;;;5024581;28;20212;-85
2023/06/10 06:11:54;;;;;;;9.27;8.68;;;20.80;60.90;;;;;;5024365;28;20648;-83
2023/06/10 06:14:19;;;;;;;8.38;7.88;;;20.80;60.60;;;;;;5026409;28;20193;-84
2023/06/10 06:16:45;;;;;;;9.38;8.68;;;20.90;60.50;;;;;;5022679;28;20181;-87
2023/06/10 06:19:11;;;;;;;9.77;8.77;;;21.00;60.00;;;;;;5022665;28;20184;-87
2023/06/10 06:21:36;;;;;;;9.10;8.50;;;21.20;59.80;;;;;;5022547;28;20203;-86
2023/06/10 06:24:02;;;;;;;9.82;9.15;;;21.30;60.10;;;;;;5020921;28;20244;-87
2023/06/10 06:26:28;;;;;;;9.50;8.55;;;21.30;58.80;;;;;;5019757;28;20214;-85
2023/06/10 06:28:53;;;;;;;8.80;8.20;;;21.50;59.10;;;;;;5022523;28;20721;-87
2023/06/10 06:31:19;;;;;;;9.25;8.55;;;21.40;58.80;;;;;;5037325;28;20229;-90
2023/06/10 06:33:45;;;;;;;9.20;8.57;;;21.50;58.60;;;;;;5056098;28;20192;-87
2023/06/10 06:36:10;;;;;;;9.05;8.35;;;21.50;58.70;;;;;;5063193;28;20186;-88
2023/06/10 06:38:36;;;;;;;9.45;8.75;;;21.60;59.10;;;;;;5047605;28;20222;-89
2023/06/10 06:41:03;;;;;;;9.77;8.98;;;21.80;58.60;;;;;;5040881;28;20178;-87
2023/06/10 06:43:30;;;;;;;8.93;8.32;;;21.90;58.30;;;;;;5037560;28;20341;-86
2023/06/10 06:45:57;;;;;;;9.00;8.30;;;22.00;57.20;;;;;;5020573;28;20348;-88
2023/06/10 06:48:23;;;;;;;8.35;7.72;;;22.10;56.60;;;;;;5034000;28;20271;-87
2023/06/10 06:50:49;;;;;;;9.95;9.02;;;22.30;56.80;;;;;;5040582;28;20204;-89
2023/06/10 06:53:14;;;;;;;8.35;7.85;;;22.20;56.10;;;;;;5046055;28;20188;-82
2023/06/10 06:55:40;;;;;;;9.27;8.55;;;22.30;56.30;;;;;;5045961;28;20169;-85
2023/06/10 06:58:05;;;;;;;13.20;9.27;;;22.50;56.30;;;;;;5026840;28;20255;-87
2023/06/10 07:00:32;;;;;;;9.35;8.65;;;22.60;55.90;;;;;;5021385;28;20188;-90
2023/06/10 07:02:58;;;;;;;9.52;8.82;;;22.60;55.70;;;;;;5040097;28;20180;-90
2023/06/10 07:05:27;;;;;;;9.30;8.43;;;22.60;56.60;;;;;;5040590;28;20188;-90
2023/06/10 07:07:56;;;;;;;8.95;8.35;;;22.70;56.50;;;;;;5040299;28;20208;-91
2023/06/10 07:10:25;;;;;;;9.80;8.95;;;22.80;56.50;;;;;;5038796;28;20223;-89
2023/06/10 07:12:51;;;;;;;9.80;9.20;;;22.90;55.60;;;;;;5039807;28;20180;-90
2023/06/10 07:15:17;;;;;;;9.55;8.95;;;23.10;55.00;;;;;;5039312;28;20180;-90
2023/06/10 07:17:43;;;;;;;9.60;9.00;;;23.10;54.50;;;;;;5041749;28;20721;-91
2023/06/10 07:20:09;;;;;;;9.18;8.57;;;23.20;54.40;;;;;;5039256;28;20231;-92
2023/06/10 07:22:35;;;;;;;9.15;8.48;;;23.20;54.20;;;;;;5038750;28;20192;-87
2023/06/10 07:25:01;;;;;;;9.30;8.70;;;23.30;54.50;;;;;;5039960;28;20280;-89
2023/06/10 07:27:26;;;;;;;9.60;8.90;;;23.30;54.80;;;;;;5043072;28;20223;-89
2023/06/10 07:29:52;;;;;;;9.90;9.10;;;23.40;54.60;;;;;;5049760;28;20220;-90
2023/06/10 07:32:20;;;;;;;8.93;8.32;;;23.50;55.00;;;;;;5038423;28;20182;-88
2023/06/10 07:34:46;;;;;;;10.13;9.52;;;23.50;54.70;;;;;;5037940;28;20885;-89
2023/06/10 07:37:11;;;;;;;9.90;9.15;;;23.70;54.10;;;;;;5039268;28;20212;-90
2023/06/10 07:39:37;;;;;;;10.10;9.18;;;23.80;53.60;;;;;;5038069;28;20200;-90
2023/06/10 07:42:03;;;;;;;9.95;9.35;;;23.80;54.10;;;;;;5017418;28;20188;-88
2023/06/10 07:44:28;;;;;;;10.32;9.63;;;23.90;53.30;;;;;;5035899;28;20704;-89
2023/06/10 07:46:54;;;;;;;10.38;9.63;;;24.00;52.20;;;;;;5035982;28;20193;-90
2023/06/10 07:49:20;;;;;;;10.05;9.38;;;24.10;52.80;;;;;;5035792;28;20270;-91
2023/06/10 07:51:45;;;;;;;9.82;8.85;;;24.20;53.60;;;;;;5037801;28;20203;-89
2023/06/10 07:54:12;;;;;;;10.02;9.35;;;24.40;52.40;;;;;;5039330;28;20216;-90
2023/06/10 07:56:38;;;;;;;10.55;9.75;;;24.50;52.70;;;;;;5043712;28;20168;-89
2023/06/10 07:59:03;;;;;;;9.93;9.32;;;24.60;51.80;;;;;;5058921;28;20172;-89
2023/06/10 08:01:30;;;;;;;10.43;9.73;;;24.60;50.90;;;;;;5058658;28;20769;-89
2023/06/10 08:03:55;;;;;;;9.93;9.32;;;24.70;50.90;;;;;;5042511;28;20187;-90
2023/06/10 08:06:21;;;;;;;9.52;8.82;;;24.60;51.80;;;;;;5040080;28;20279;-91
2023/06/10 08:08:46;;;;;;;10.27;9.68;;;24.70;51.80;;;;;;5026555;28;20201;-90
2023/06/10 08:11:13;;;;;;;9.95;9.25;;;24.90;50.90;;;;;;5018178;28;20174;-89
2023/06/10 08:13:39;;;;;;;10.40;9.60;;;24.80;51.40;;;;;;5033428;28;20200;-88
2023/06/10 08:16:05;;;;;;;10.48;9.82;;;25.00;50.30;;;;;;5037409;28;20173;-90
2023/06/10 08:18:31;;;;;;;10.05;9.25;;;25.00;50.70;;;;;;5021065;28;20263;-89
2023/06/10 08:20:57;;;;;;;10.20;9.48;;;25.20;50.20;;;;;;5037374;28;20180;-89
2023/06/10 08:23:23;;;;;;;9.98;9.40;;;25.30;50.00;;;;;;5038545;28;20188;-89
2023/06/10 08:25:48;;;;;;;10.85;10.15;;;25.30;49.10;;;;;;5049315;28;20194;-88
2023/06/10 08:28:14;;;;;;;9.68;9.07;;;25.40;49.10;;;;;;5056534;28;20227;-89
2023/06/10 08:30:40;;;;;;;8.98;8.40;;;25.40;49.60;;;;;;5055630;28;20184;-90
2023/06/10 08:33:05;;;;;;;9.60;9.00;;;25.50;47.50;;;;;;5046980;28;20199;-90
2023/06/10 08:35:31;;;;;;;10.10;9.50;;;25.60;48.50;;;;;;5035763;28;20334;-89
2023/06/10 08:37:57;;;;;;;10.82;9.93;;;25.80;48.80;;;;;;5034553;28;20567;-89
2023/06/10 08:40:23;;;;;;;10.15;9.48;;;26.00;47.80;;;;;;5033956;28;20184;-89
2023/06/10 08:43:04;;;;;;;10.75;10.05;;;26.00;47.20;;;;;;5034483;28;20185;-89
2023/06/10 08:45:35;;;;;;;9.48;8.88;;;26.00;47.40;;;;;;5033470;28;20268;-90
2023/06/10 08:48:09;;;;;;;9.25;8.65;;;26.00;46.40;;;;;;5034824;28;20216;-89
2023/06/10 08:50:36;;;;;;;9.93;9.23;;;26.10;46.20;;;;;;5034424;28;20165;-89
2023/06/10 08:53:05;;;;;;;9.45;8.93;;;26.30;47.10;;;;;;5036629;28;20181;-89
2023/06/10 08:55:35;;;;;;;9.45;8.73;;;26.40;45.40;;;;;;5041318;28;20216;-87
2023/06/10 08:58:01;;;;;;;10.38;9.75;;;26.80;44.10;;;;;;5037380;28;20211;-89
2023/06/10 09:00:28;;;;;;;11.07;10.48;;;27.10;44.10;;;;;;5035339;28;20196;-88
2023/06/10 09:02:58;;;;;;;12.23;11.23;;;27.20;43.10;;;;;;5035580;28;20181;-89
2023/06/10 09:05:24;;;;;;;11.73;10.93;;;27.20;41.50;;;;;;5036171;28;20267;-89
2023/06/10 09:07:52;;;;;;;10.93;10.32;;;27.20;42.30;;;;;;5030564;28;20201;-87
2023/06/10 09:10:18;;;;;;;10.85;10.25;;;27.20;42.00;;;;;;4999636;28;20209;-88
2023/06/10 09:12:44;;;;;;;11.60;10.80;;;27.20;42.70;;;;;;5018865;28;20535;-90
2023/06/10 09:15:12;;;;;;;10.88;10.27;;;27.30;41.60;;;;;;5037521;28;20255;-88
2023/06/10 09:17:38;;;;;;;11.02;10.32;;;27.40;42.30;;;;;;5037111;28;20220;-89
2023/06/10 09:20:04;;;;;;;11.32;10.73;;;27.70;42.20;;;;;;5046659;28;20249;-89
2023/06/10 09:22:30;;;;;;;12.02;11.43;;;27.80;43.00;;;;;;5051089;28;20210;-89
2023/06/10 09:25:10;;;;;;;13.82;13.02;;;28.10;40.70;;;;;;5037204;28;20698;-89
2023/06/10 09:27:53;;;;;;;12.90;12.10;;;28.30;39.90;;;;;;5037305;28;20208;-90
2023/06/10 09:30:27;;;;;;;13.52;12.90;;;28.50;39.80;;;;;;5035879;28;20197;-90
2023/06/10 09:32:57;;;;;;;12.73;12.05;;;28.30;39.90;;;;;;5035155;28;20188;-90
2023/06/10 09:35:26;;;;;;;14.18;13.25;;;28.40;40.40;;;;;;5034273;28;20196;-89
2023/06/10 09:37:53;;;;;;;14.80;13.85;;;28.60;40.50;;;;;;5017040;28;20229;-92
2023/06/10 09:40:19;;;;;;;15.95;15.07;;;28.70;39.70;;;;;;5032206;28;20200;-89
2023/06/10 09:42:45;;;;;;;15.98;14.98;;;28.70;38.80;;;;;;5032234;28;20207;-89
2023/06/10 09:45:10;;;;;;;14.80;14.00;;;28.60;38.90;;;;;;5017554;28;20809;-91
2023/06/10 09:47:36;;;;;;;16.40;15.60;;;28.90;38.90;;;;;;5034066;28;20219;-90
2023/06/10 09:50:03;;;;;;;17.60;16.55;;;28.90;37.90;;;;;;5035786;28;20217;-90
2023/06/10 09:52:29;;;;;;;17.50;16.67;;;29.10;38.10;;;;;;5039362;28;20185;-89
2023/06/10 09:55:00;;;;;;;17.25;16.35;;;29.10;38.60;;;;;;5039642;28;20247;-91
2023/06/10 09:57:30;;;;;;;16.73;15.93;;;28.90;38.10;;;;;;5052005;28;20681;-90
2023/06/10 09:59:55;;;;;;;16.33;15.20;;;29.10;38.20;;;;;;5060340;28;20176;-90
2023/06/10 10:02:21;;;;;;;17.70;16.70;;;29.10;38.70;;;;;;5053200;28;20215;-89
2023/06/10 10:04:47;;;;;;;17.33;16.50;;;29.20;38.60;;;;;;5039540;28;20683;-91
2023/06/10 10:07:14;;;;;;;17.20;16.30;;;29.30;38.10;;;;;;5022405;28;20233;-90
2023/06/10 10:09:41;;;;;;;18.00;16.88;;;29.40;37.60;;;;;;5039066;28;20247;-90
2023/06/10 10:12:15;;;;;;;17.25;16.45;;;29.40;37.80;;;;;;5038752;28;20472;-91
2023/06/10 10:14:46;;;;;;;17.45;16.63;;;29.20;37.90;;;;;;5039148;28;20208;-89
2023/06/10 10:17:15;;;;;;;18.13;17.17;;;29.40;37.60;;;;;;5040853;28;20215;-91
2023/06/10 10:19:48;;;;;;;19.63;18.60;;;29.80;37.00;;;;;;5044160;28;20231;-91
2023/06/10 10:22:27;;;;;;;18.85;17.85;;;29.90;37.40;;;;;;5040192;28;20183;-88
2023/06/10 10:24:59;;;;;;;19.35;18.23;;;29.80;36.70;;;;;;5040022;28;20181;-92
2023/06/10 10:27:40;;;;;;;19.92;18.85;;;29.90;36.70;;;;;;5038986;28;20239;-91
2023/06/10 10:30:09;;;;;;;20.08;19.08;;;30.10;36.90;;;;;;5038167;28;20210;-91
2023/06/10 10:32:42;;;;;;;20.88;19.95;;;30.40;36.00;;;;;;5036523;28;20184;-92
2023/06/10 10:35:12;;;;;;;20.42;19.48;;;30.60;35.80;;;;;;5035066;28;20616;-92
2023/06/10 10:37:38;;;;;;;19.67;18.77;;;30.60;35.90;;;;;;5036687;28;20605;-91
2023/06/10 10:40:05;;;;;;;20.27;19.25;;;30.60;34.90;;;;;;5037795;28;20189;-93
2023/06/10 10:42:32;;;;;;;20.77;19.67;;;30.60;34.60;;;;;;5036594;28;20185;-94
2023/06/10 10:44:59;;;;;;;20.15;19.05;;;30.70;35.10;;;;;;5037689;28;20181;-93
2023/06/10 10:47:29;;;;;;;21.52;20.42;;;30.70;34.00;;;;;;5038780;28;20304;-91
2023/06/10 10:49:58;;;;;;;20.98;19.90;;;30.50;35.70;;;;;;5039591;28;20193;-92
2023/06/10 10:52:25;;;;;;;20.70;19.70;;;30.70;34.80;;;;;;5038114;28;20204;-90
2023/06/10 10:54:53;;;;;;;20.65;19.75;;;30.80;34.70;;;;;;5038709;28;20204;-90
2023/06/10 10:57:20;;;;;;;21.35;20.35;;;31.10;34.30;;;;;;5050124;28;20305;-91
2023/06/10 10:59:48;;;;;;;22.00;20.90;;;31.10;33.20;;;;;;5058735;28;20172;-91
2023/06/10 11:02:38;;;;;;;21.52;20.42;;;31.40;33.10;;;;;;5054556;28;20181;-92
2023/06/10 11:05:05;;;;;;;21.40;20.50;;;31.20;33.80;;;;;;5021084;28;20192;-95
2023/06/10 11:07:32;;;;;;;21.80;20.90;;;31.70;32.80;;;;;;5037684;28;20809;-92
2023/06/10 11:10:11;;;;;;;21.50;20.30;;;32.00;32.30;;;;;;5038337;28;20213;-92
2023/06/10 11:12:52;;;;;;;22.17;20.73;;;32.20;31.10;;;;;;5038575;28;20188;-91
2023/06/10 11:15:29;;;;;;;21.65;20.75;;;32.10;31.70;;;;;;5049819;28;20168;-91
2023/06/10 11:18:10;;;;;;;21.65;20.65;;;32.00;31.90;;;;;;5058633;28;20200;-93
2023/06/10 11:20:48;;;;;;;21.48;20.42;;;32.20;31.10;;;;;;5056158;28;20662;-91
2023/06/10 11:23:32;;;;;;;21.10;20.20;;;32.10;31.70;;;;;;5047148;28;20185;-92
2023/06/10 11:26:17;;;;;;;21.75;20.75;;;31.60;32.30;;;;;;5036011;28;20154;-93
2023/06/10 11:28:46;;;;;;;22.67;21.58;;;31.80;31.60;;;;;;5033867;28;20216;-91
2023/06/10 11:31:21;;;;;;;22.73;21.63;;;32.10;31.50;;;;;;5032714;28;20188;-92
2023/06/10 11:33:56;;;;;;;23.48;22.30;;;32.00;32.30;;;;;;5034771;28;20208;-94
2023/06/10 11:36:25;;;;;;;22.10;21.10;;;32.30;31.80;;;;;;5034996;28;20543;-93
2023/06/10 11:38:57;;;;;;;23.48;22.48;;;32.00;31.20;;;;;;5036147;28;20197;-92
2023/06/10 11:41:28;;;;;;;23.45;22.45;;;32.20;31.30;;;;;;5036754;28;20185;-91
2023/06/10 11:43:58;;;;;;;23.23;22.20;;;32.70;30.50;;;;;;5036359;28;20218;-93
2023/06/10 11:46:26;;;;;;;23.30;22.25;;;32.80;30.50;;;;;;5038208;28;20266;-92
2023/06/10 11:48:54;;;;;;;22.77;21.77;;;33.00;30.50;;;;;;5037065;28;20208;-92
2023/06/10 11:51:20;;;;;;;24.02;22.92;;;32.90;29.40;;;;;;5038189;28;20232;-91
2023/06/10 11:53:49;;;;;;;22.92;21.92;;;33.00;30.50;;;;;;5038162;28;20191;-91
2023/06/10 11:56:29;;;;;;;23.15;22.05;;;32.70;29.80;;;;;;5040345;28;20536;-92
2023/06/10 11:59:04;;;;;;;23.20;22.10;;;32.40;29.90;;;;;;5057622;28;20204;-92
2023/06/10 12:01:31;;;;;;;23.83;22.77;;;32.50;30.00;;;;;;5056072;28;20159;-91
2023/06/10 12:04:05;;;;;;;23.77;22.60;;;32.90;30.20;;;;;;5042247;28;20200;-92
2023/06/10 12:07:00;;;;;;;24.42;23.42;;;32.90;29.60;;;;;;5037656;28;20211;-91
2023/06/10 12:09:27;;;;;;;23.63;22.63;;;32.80;29.70;;;;;;5019771;28;20236;-92
2023/06/10 12:12:02;;;;;;;24.40;23.40;;;33.00;30.50;;;;;;5046883;28;20177;-92
2023/06/10 12:14:56;;;;;;;23.48;22.48;;;33.10;30.10;;;;;;5042037;28;20180;-92
2023/06/10 12:17:23;;;;;;;24.20;23.20;;;33.10;29.30;;;;;;5039696;28;20667;-92
2023/06/10 12:19:50;;;;;;;24.70;23.55;;;33.60;28.90;;;;;;5038243;28;20719;-92
2023/06/10 12:22:16;;;;;;;25.90;24.80;;;34.00;28.40;;;;;;5035370;28;20319;-91
2023/06/10 12:24:56;;;;;;;25.75;24.65;;;34.20;27.90;;;;;;5018856;28;20216;-91
2023/06/10 12:27:22;;;;;;;25.35;24.25;;;34.00;28.40;;;;;;5034518;28;20193;-92
2023/06/10 12:29:55;;;;;;;25.00;23.80;;;33.80;28.30;;;;;;5014233;28;20552;-91
2023/06/10 12:32:26;;;;;;;24.45;23.35;;;33.60;28.60;;;;;;5022963;28;20276;-92
2023/06/10 12:35:06;;;;;;;23.85;22.85;;;33.70;28.90;;;;;;5014668;28;20166;-91
2023/06/10 12:37:35;;;;;;;23.75;22.65;;;33.80;28.40;;;;;;5031384;28;20468;-93